sensor_id;sensor_type;location;lat;lon;timestamp;P1;durP1;ratioP1;P2;durP2;ratioP2
76576;SDS011;65441;44.748;37.600;2023-03-01T00:00:17;9.73;;;3.95;;
76576;SDS011;65441;44.748;37.600;2023-03-01T00:02:48;9.65;;;3.92;;
76576;SDS011;65441;44.748;37.600;2023-03-01T00:05:17;10.13;;;4.18;;
76576;SDS011;65441;44.748;37.600;2023-03-01T00:07:52;10.38;;;4.03;;
76576;SDS011;65441;44.748;37.600;2023-03-01T00:10:25;10.20;;;4.28;;
76576;SDS011;65441;44.748;37.600;2023-03-01T00:12:54;9.10;;;3.85;;
76576;SDS011;65441;44.748;37.600;2023-03-01T00:15:26;9.02;;;4.15;;
76576;SDS011;65441;44.748;37.600;2023-03-01T00:17:56;12.40;;;4.47;;
76576;SDS011;65441;44.748;37.600;2023-03-01T00:20:27;11.27;;;4.35;;
76576;SDS011;65441;44.748;37.600;2023-03-01T00:22:58;9.48;;;4.35;;
76576;SDS011;65441;44.748;37.600;2023-03-01T00:25:31;13.02;;;5.10;;
76576;SDS011;65441;44.748;37.600;2023-03-01T00:28:01;10.00;;;4.60;;
76576;SDS011;65441;44.748;37.600;2023-03-01T00:30:34;10.13;;;4.47;;
76576;SDS011;65441;44.748;37.600;2023-03-01T00:33:06;10.98;;;4.25;;
76576;SDS011;65441;44.748;37.600;2023-03-01T00:35:37;11.63;;;4.70;;
76576;SDS011;65441;44.748;37.600;2023-03-01T00:38:08;12.98;;;5.07;;
76576;SDS011;65441;44.748;37.600;2023-03-01T00:40:40;10.07;;;4.35;;
76576;SDS011;65441;44.748;37.600;2023-03-01T00:43:10;12.52;;;4.90;;
76576;SDS011;65441;44.748;37.600;2023-03-01T00:45:44;12.82;;;5.35;;
76576;SDS011;65441;44.748;37.600;2023-03-01T00:48:15;13.30;;;5.07;;
76576;SDS011;65441;44.748;37.600;2023-03-01T00:50:51;12.52;;;4.40;;
76576;SDS011;65441;44.748;37.600;2023-03-01T00:53:20;13.48;;;5.50;;
76576;SDS011;65441;44.748;37.600;2023-03-01T00:55:51;14.18;;;5.55;;
76576;SDS011;65441;44.748;37.600;2023-03-01T00:58:25;17.40;;;6.13;;
76576;SDS011;65441;44.748;37.600;2023-03-01T01:00:58;16.52;;;5.70;;
76576;SDS011;65441;44.748;37.600;2023-03-01T01:03:27;17.70;;;6.55;;
76576;SDS011;65441;44.748;37.600;2023-03-01T01:05:58;13.73;;;6.03;;
76576;SDS011;65441;44.748;37.600;2023-03-01T01:08:38;13.55;;;5.60;;
76576;SDS011;65441;44.748;37.600;2023-03-01T01:11:11;13.27;;;5.47;;
76576;SDS011;65441;44.748;37.600;2023-03-01T01:13:40;13.25;;;5.63;;
76576;SDS011;65441;44.748;37.600;2023-03-01T01:16:10;12.05;;;5.50;;
76576;SDS011;65441;44.748;37.600;2023-03-01T01:18:40;13.45;;;6.00;;
76576;SDS011;65441;44.748;37.600;2023-03-01T01:21:13;14.13;;;5.80;;
76576;SDS011;65441;44.748;37.600;2023-03-01T01:23:44;13.32;;;5.82;;
76576;SDS011;65441;44.748;37.600;2023-03-01T01:26:15;13.55;;;5.95;;
76576;SDS011;65441;44.748;37.600;2023-03-01T01:28:48;13.77;;;6.18;;
76576;SDS011;65441;44.748;37.600;2023-03-01T01:31:18;14.85;;;5.18;;
76576;SDS011;65441;44.748;37.600;2023-03-01T01:33:52;13.02;;;5.25;;
76576;SDS011;65441;44.748;37.600;2023-03-01T01:36:22;13.57;;;5.43;;
76576;SDS011;65441;44.748;37.600;2023-03-01T01:38:54;15.15;;;6.00;;
76576;SDS011;65441;44.748;37.600;2023-03-01T01:41:25;11.35;;;5.22;;
76576;SDS011;65441;44.748;37.600;2023-03-01T01:46:46;13.05;;;5.25;;
76576;SDS011;65441;44.748;37.600;2023-03-01T01:49:27;13.70;;;5.82;;
76576;SDS011;65441;44.748;37.600;2023-03-01T01:52:02;18.02;;;6.20;;
76576;SDS011;65441;44.748;37.600;2023-03-01T01:54:38;15.85;;;6.15;;
76576;SDS011;65441;44.748;37.600;2023-03-01T01:57:13;13.18;;;5.75;;
76576;SDS011;65441;44.748;37.600;2023-03-01T01:59:51;18.10;;;5.93;;
76576;SDS011;65441;44.748;37.600;2023-03-01T02:02:23;14.32;;;6.43;;
76576;SDS011;65441;44.748;37.600;2023-03-01T02:04:58;15.27;;;6.32;;
76576;SDS011;65441;44.748;37.600;2023-03-01T02:07:37;16.98;;;7.05;;
76576;SDS011;65441;44.748;37.600;2023-03-01T02:10:11;14.88;;;6.50;;
76576;SDS011;65441;44.748;37.600;2023-03-01T02:12:44;13.45;;;5.72;;
76576;SDS011;65441;44.748;37.600;2023-03-01T02:15:16;13.68;;;6.50;;
76576;SDS011;65441;44.748;37.600;2023-03-01T02:17:47;18.65;;;6.55;;
76576;SDS011;65441;44.748;37.600;2023-03-01T02:20:18;16.83;;;7.03;;
76576;SDS011;65441;44.748;37.600;2023-03-01T02:22:51;17.42;;;7.07;;
76576;SDS011;65441;44.748;37.600;2023-03-01T02:25:30;16.52;;;7.32;;
76576;SDS011;65441;44.748;37.600;2023-03-01T02:28:07;17.52;;;7.35;;
76576;SDS011;65441;44.748;37.600;2023-03-01T02:30:44;15.25;;;6.47;;
76576;SDS011;65441;44.748;37.600;2023-03-01T02:33:29;16.27;;;6.38;;
76576;SDS011;65441;44.748;37.600;2023-03-01T02:36:03;16.52;;;6.78;;
76576;SDS011;65441;44.748;37.600;2023-03-01T02:38:40;16.70;;;6.75;;
76576;SDS011;65441;44.748;37.600;2023-03-01T02:41:10;15.00;;;6.90;;
76576;SDS011;65441;44.748;37.600;2023-03-01T02:43:45;16.52;;;6.80;;
76576;SDS011;65441;44.748;37.600;2023-03-01T02:46:18;16.35;;;6.90;;
76576;SDS011;65441;44.748;37.600;2023-03-01T02:48:51;13.68;;;6.18;;
76576;SDS011;65441;44.748;37.600;2023-03-01T02:51:24;15.07;;;6.30;;
76576;SDS011;65441;44.748;37.600;2023-03-01T02:54:13;17.65;;;6.75;;
76576;SDS011;65441;44.748;37.600;2023-03-01T02:56:48;15.32;;;6.38;;
76576;SDS011;65441;44.748;37.600;2023-03-01T02:59:24;16.83;;;7.78;;
76576;SDS011;65441;44.748;37.600;2023-03-01T03:02:01;15.98;;;6.90;;
76576;SDS011;65441;44.748;37.600;2023-03-01T03:04:34;17.92;;;6.25;;
76576;SDS011;65441;44.748;37.600;2023-03-01T03:07:05;18.50;;;7.30;;
76576;SDS011;65441;44.748;37.600;2023-03-01T03:09:36;15.68;;;6.85;;
76576;SDS011;65441;44.748;37.600;2023-03-01T03:12:08;18.80;;;7.15;;
76576;SDS011;65441;44.748;37.600;2023-03-01T03:14:37;14.38;;;6.13;;
76576;SDS011;65441;44.748;37.600;2023-03-01T03:17:09;15.43;;;6.43;;
76576;SDS011;65441;44.748;37.600;2023-03-01T03:19:40;14.27;;;6.25;;
76576;SDS011;65441;44.748;37.600;2023-03-01T03:22:12;15.38;;;6.47;;
76576;SDS011;65441;44.748;37.600;2023-03-01T03:24:41;17.10;;;6.75;;
76576;SDS011;65441;44.748;37.600;2023-03-01T03:27:13;16.05;;;6.78;;
76576;SDS011;65441;44.748;37.600;2023-03-01T03:29:42;18.10;;;6.85;;
76576;SDS011;65441;44.748;37.600;2023-03-01T03:32:14;17.05;;;6.40;;
76576;SDS011;65441;44.748;37.600;2023-03-01T03:34:45;14.60;;;6.13;;
76576;SDS011;65441;44.748;37.600;2023-03-01T03:37:16;14.80;;;5.75;;
76576;SDS011;65441;44.748;37.600;2023-03-01T03:40:00;13.73;;;5.90;;
76576;SDS011;65441;44.748;37.600;2023-03-01T03:42:43;14.13;;;5.75;;
76576;SDS011;65441;44.748;37.600;2023-03-01T03:45:16;13.75;;;5.78;;
76576;SDS011;65441;44.748;37.600;2023-03-01T03:47:51;16.77;;;6.68;;
76576;SDS011;65441;44.748;37.600;2023-03-01T03:50:24;15.02;;;6.38;;
76576;SDS011;65441;44.748;37.600;2023-03-01T03:53:02;14.95;;;6.40;;
76576;SDS011;65441;44.748;37.600;2023-03-01T03:55:35;20.50;;;6.88;;
76576;SDS011;65441;44.748;37.600;2023-03-01T03:58:15;17.73;;;7.05;;
76576;SDS011;65441;44.748;37.600;2023-03-01T04:00:52;16.52;;;6.53;;
76576;SDS011;65441;44.748;37.600;2023-03-01T04:03:26;17.95;;;6.95;;
76576;SDS011;65441;44.748;37.600;2023-03-01T04:06:00;16.95;;;6.35;;
76576;SDS011;65441;44.748;37.600;2023-03-01T04:08:32;18.80;;;6.55;;
76576;SDS011;65441;44.748;37.600;2023-03-01T04:11:10;18.30;;;7.13;;
76576;SDS011;65441;44.748;37.600;2023-03-01T04:14:03;14.73;;;6.07;;
76576;SDS011;65441;44.748;37.600;2023-03-01T04:16:37;15.48;;;5.85;;
76576;SDS011;65441;44.748;37.600;2023-03-01T04:19:10;20.35;;;7.50;;
76576;SDS011;65441;44.748;37.600;2023-03-01T04:21:42;16.45;;;6.65;;
76576;SDS011;65441;44.748;37.600;2023-03-01T04:24:17;17.23;;;6.45;;
76576;SDS011;65441;44.748;37.600;2023-03-01T04:26:50;14.32;;;6.15;;
76576;SDS011;65441;44.748;37.600;2023-03-01T04:29:26;16.77;;;6.75;;
76576;SDS011;65441;44.748;37.600;2023-03-01T04:32:00;14.55;;;6.22;;
76576;SDS011;65441;44.748;37.600;2023-03-01T04:34:39;13.90;;;5.85;;
76576;SDS011;65441;44.748;37.600;2023-03-01T04:37:10;15.98;;;6.45;;
76576;SDS011;65441;44.748;37.600;2023-03-01T04:39:42;16.63;;;7.10;;
76576;SDS011;65441;44.748;37.600;2023-03-01T04:42:16;14.95;;;6.72;;
76576;SDS011;65441;44.748;37.600;2023-03-01T04:45:03;19.63;;;7.07;;
76576;SDS011;65441;44.748;37.600;2023-03-01T04:47:43;15.27;;;6.95;;
76576;SDS011;65441;44.748;37.600;2023-03-01T04:50:19;18.17;;;5.82;;
76576;SDS011;65441;44.748;37.600;2023-03-01T04:55:22;15.45;;;5.72;;
76576;SDS011;65441;44.748;37.600;2023-03-01T04:57:52;14.13;;;5.75;;
76576;SDS011;65441;44.748;37.600;2023-03-01T05:00:25;16.55;;;6.93;;
76576;SDS011;65441;44.748;37.600;2023-03-01T05:02:59;15.60;;;6.00;;
76576;SDS011;65441;44.748;37.600;2023-03-01T05:05:34;16.65;;;6.70;;
76576;SDS011;65441;44.748;37.600;2023-03-01T05:08:11;17.52;;;6.45;;
76576;SDS011;65441;44.748;37.600;2023-03-01T05:10:44;16.10;;;6.03;;
76576;SDS011;65441;44.748;37.600;2023-03-01T05:13:19;16.95;;;6.60;;
76576;SDS011;65441;44.748;37.600;2023-03-01T05:15:57;15.00;;;5.95;;
76576;SDS011;65441;44.748;37.600;2023-03-01T05:18:31;16.17;;;6.50;;
76576;SDS011;65441;44.748;37.600;2023-03-01T05:21:07;14.05;;;5.85;;
76576;SDS011;65441;44.748;37.600;2023-03-01T05:23:43;13.73;;;5.97;;
76576;SDS011;65441;44.748;37.600;2023-03-01T05:26:15;16.42;;;6.53;;
76576;SDS011;65441;44.748;37.600;2023-03-01T05:28:45;19.17;;;7.57;;
76576;SDS011;65441;44.748;37.600;2023-03-01T05:31:16;19.13;;;7.80;;
76576;SDS011;65441;44.748;37.600;2023-03-01T05:33:49;17.90;;;6.95;;
76576;SDS011;65441;44.748;37.600;2023-03-01T05:36:24;18.48;;;7.05;;
76576;SDS011;65441;44.748;37.600;2023-03-01T05:39:01;16.50;;;6.32;;
76576;SDS011;65441;44.748;37.600;2023-03-01T05:41:34;15.27;;;6.88;;
76576;SDS011;65441;44.748;37.600;2023-03-01T05:44:08;16.83;;;6.85;;
76576;SDS011;65441;44.748;37.600;2023-03-01T05:46:40;15.18;;;6.10;;
76576;SDS011;65441;44.748;37.600;2023-03-01T05:49:11;15.00;;;6.28;;
76576;SDS011;65441;44.748;37.600;2023-03-01T05:51:47;18.00;;;6.78;;
76576;SDS011;65441;44.748;37.600;2023-03-01T05:54:18;18.02;;;6.53;;
76576;SDS011;65441;44.748;37.600;2023-03-01T05:56:50;18.23;;;6.85;;
76576;SDS011;65441;44.748;37.600;2023-03-01T05:59:24;14.23;;;5.50;;
76576;SDS011;65441;44.748;37.600;2023-03-01T06:07:01;14.90;;;6.00;;
76576;SDS011;65441;44.748;37.600;2023-03-01T06:09:30;15.45;;;5.97;;
76576;SDS011;65441;44.748;37.600;2023-03-01T06:12:02;16.70;;;6.43;;
76576;SDS011;65441;44.748;37.600;2023-03-01T06:14:31;16.60;;;6.57;;
76576;SDS011;65441;44.748;37.600;2023-03-01T06:17:04;15.32;;;6.53;;
76576;SDS011;65441;44.748;37.600;2023-03-01T06:19:35;15.80;;;6.13;;
76576;SDS011;65441;44.748;37.600;2023-03-01T06:22:09;15.20;;;6.15;;
76576;SDS011;65441;44.748;37.600;2023-03-01T06:24:42;15.63;;;6.55;;
76576;SDS011;65441;44.748;37.600;2023-03-01T06:27:13;17.67;;;7.18;;
76576;SDS011;65441;44.748;37.600;2023-03-01T06:29:44;18.50;;;7.13;;
76576;SDS011;65441;44.748;37.600;2023-03-01T06:32:19;16.65;;;6.60;;
76576;SDS011;65441;44.748;37.600;2023-03-01T06:34:51;17.55;;;6.88;;
76576;SDS011;65441;44.748;37.600;2023-03-01T06:37:24;16.10;;;6.63;;
76576;SDS011;65441;44.748;37.600;2023-03-01T06:39:55;18.52;;;7.60;;
76576;SDS011;65441;44.748;37.600;2023-03-01T06:42:26;20.70;;;6.15;;
76576;SDS011;65441;44.748;37.600;2023-03-01T06:44:58;23.55;;;7.28;;
76576;SDS011;65441;44.748;37.600;2023-03-01T06:47:27;29.02;;;8.65;;
76576;SDS011;65441;44.748;37.600;2023-03-01T06:49:59;26.23;;;8.63;;
76576;SDS011;65441;44.748;37.600;2023-03-01T06:52:32;23.67;;;8.30;;
76576;SDS011;65441;44.748;37.600;2023-03-01T06:55:04;19.27;;;8.10;;
76576;SDS011;65441;44.748;37.600;2023-03-01T06:57:34;15.90;;;7.03;;
76576;SDS011;65441;44.748;37.600;2023-03-01T07:00:03;17.38;;;6.35;;
76576;SDS011;65441;44.748;37.600;2023-03-01T07:02:34;18.13;;;6.85;;
76576;SDS011;65441;44.748;37.600;2023-03-01T07:05:04;17.98;;;6.50;;
76576;SDS011;65441;44.748;37.600;2023-03-01T07:07:35;14.93;;;5.82;;
76576;SDS011;65441;44.748;37.600;2023-03-01T07:10:04;13.88;;;6.25;;
76576;SDS011;65441;44.748;37.600;2023-03-01T07:12:34;14.90;;;6.20;;
76576;SDS011;65441;44.748;37.600;2023-03-01T07:15:04;15.52;;;6.22;;
76576;SDS011;65441;44.748;37.600;2023-03-01T07:17:36;14.82;;;6.55;;
76576;SDS011;65441;44.748;37.600;2023-03-01T07:20:05;17.10;;;6.05;;
76576;SDS011;65441;44.748;37.600;2023-03-01T07:22:36;13.70;;;6.07;;
76576;SDS011;65441;44.748;37.600;2023-03-01T07:25:08;12.98;;;6.00;;
76576;SDS011;65441;44.748;37.600;2023-03-01T07:27:38;14.70;;;5.90;;
76576;SDS011;65441;44.748;37.600;2023-03-01T07:30:08;13.82;;;6.38;;
76576;SDS011;65441;44.748;37.600;2023-03-01T07:32:38;14.00;;;6.63;;
76576;SDS011;65441;44.748;37.600;2023-03-01T07:35:09;14.55;;;5.95;;
76576;SDS011;65441;44.748;37.600;2023-03-01T07:37:40;13.50;;;6.15;;
76576;SDS011;65441;44.748;37.600;2023-03-01T07:40:09;12.75;;;5.55;;
76576;SDS011;65441;44.748;37.600;2023-03-01T07:42:39;13.95;;;5.60;;
76576;SDS011;65441;44.748;37.600;2023-03-01T07:45:09;12.00;;;5.90;;
76576;SDS011;65441;44.748;37.600;2023-03-01T07:47:40;14.68;;;5.53;;
76576;SDS011;65441;44.748;37.600;2023-03-01T07:50:09;13.13;;;5.72;;
76576;SDS011;65441;44.748;37.600;2023-03-01T07:52:41;12.18;;;5.10;;
76576;SDS011;65441;44.748;37.600;2023-03-01T07:55:12;16.40;;;6.20;;
76576;SDS011;65441;44.748;37.600;2023-03-01T07:57:41;13.40;;;5.35;;
76576;SDS011;65441;44.748;37.600;2023-03-01T08:00:11;10.48;;;4.57;;
76576;SDS011;65441;44.748;37.600;2023-03-01T08:02:41;10.25;;;4.47;;
76576;SDS011;65441;44.748;37.600;2023-03-01T08:05:16;11.20;;;5.25;;
76576;SDS011;65441;44.748;37.600;2023-03-01T08:07:47;11.88;;;4.68;;
76576;SDS011;65441;44.748;37.600;2023-03-01T08:10:15;12.00;;;4.88;;
76576;SDS011;65441;44.748;37.600;2023-03-01T08:12:47;10.35;;;4.30;;
76576;SDS011;65441;44.748;37.600;2023-03-01T08:15:36;10.00;;;4.45;;
76576;SDS011;65441;44.748;37.600;2023-03-01T08:18:05;11.85;;;4.93;;
76576;SDS011;65441;44.748;37.600;2023-03-01T08:20:38;10.95;;;4.47;;
76576;SDS011;65441;44.748;37.600;2023-03-01T08:23:11;11.07;;;4.68;;
76576;SDS011;65441;44.748;37.600;2023-03-01T08:25:50;9.20;;;4.28;;
76576;SDS011;65441;44.748;37.600;2023-03-01T08:28:19;9.68;;;4.15;;
76576;SDS011;65441;44.748;37.600;2023-03-01T08:30:48;11.38;;;4.70;;
76576;SDS011;65441;44.748;37.600;2023-03-01T08:33:17;9.63;;;4.63;;
76576;SDS011;65441;44.748;37.600;2023-03-01T08:35:45;11.27;;;5.13;;
76576;SDS011;65441;44.748;37.600;2023-03-01T08:38:16;11.60;;;4.65;;
76576;SDS011;65441;44.748;37.600;2023-03-01T08:40:44;11.35;;;4.38;;
76576;SDS011;65441;44.748;37.600;2023-03-01T08:43:13;11.55;;;5.43;;
76576;SDS011;65441;44.748;37.600;2023-03-01T08:45:42;11.57;;;5.22;;
76576;SDS011;65441;44.748;37.600;2023-03-01T08:48:11;11.45;;;5.63;;
76576;SDS011;65441;44.748;37.600;2023-03-01T08:50:39;10.57;;;4.90;;
76576;SDS011;65441;44.748;37.600;2023-03-01T08:53:08;12.60;;;5.47;;
76576;SDS011;65441;44.748;37.600;2023-03-01T08:55:45;11.73;;;4.68;;
76576;SDS011;65441;44.748;37.600;2023-03-01T08:58:14;12.88;;;5.10;;
76576;SDS011;65441;44.748;37.600;2023-03-01T09:00:47;10.68;;;4.60;;
76576;SDS011;65441;44.748;37.600;2023-03-01T09:03:16;18.05;;;4.93;;
76576;SDS011;65441;44.748;37.600;2023-03-01T09:05:45;12.68;;;4.80;;
76576;SDS011;65441;44.748;37.600;2023-03-01T09:08:13;14.52;;;4.85;;
76576;SDS011;65441;44.748;37.600;2023-03-01T09:10:42;15.52;;;5.22;;
76576;SDS011;65441;44.748;37.600;2023-03-01T09:13:18;14.95;;;5.20;;
76576;SDS011;65441;44.748;37.600;2023-03-01T09:15:47;12.30;;;3.50;;
76576;SDS011;65441;44.748;37.600;2023-03-01T09:18:16;15.38;;;4.65;;
76576;SDS011;65441;44.748;37.600;2023-03-01T09:20:45;11.93;;;3.58;;
76576;SDS011;65441;44.748;37.600;2023-03-01T09:23:13;9.25;;;3.78;;
76576;SDS011;65441;44.748;37.600;2023-03-01T09:25:42;8.18;;;3.28;;
76576;SDS011;65441;44.748;37.600;2023-03-01T09:28:11;9.38;;;3.70;;
76576;SDS011;65441;44.748;37.600;2023-03-01T09:30:44;8.65;;;3.45;;
76576;SDS011;65441;44.748;37.600;2023-03-01T09:33:13;8.50;;;3.75;;
76576;SDS011;65441;44.748;37.600;2023-03-01T09:35:42;8.68;;;3.75;;
76576;SDS011;65441;44.748;37.600;2023-03-01T09:38:13;7.03;;;2.97;;
76576;SDS011;65441;44.748;37.600;2023-03-01T09:40:42;7.65;;;3.53;;
76576;SDS011;65441;44.748;37.600;2023-03-01T09:43:15;8.23;;;3.30;;
76576;SDS011;65441;44.748;37.600;2023-03-01T09:45:53;8.98;;;3.65;;
76576;SDS011;65441;44.748;37.600;2023-03-01T09:48:27;8.18;;;3.33;;
76576;SDS011;65441;44.748;37.600;2023-03-01T09:51:01;11.18;;;4.05;;
76576;SDS011;65441;44.748;37.600;2023-03-01T09:53:37;9.02;;;3.40;;
76576;SDS011;65441;44.748;37.600;2023-03-01T09:56:11;7.15;;;3.03;;
76576;SDS011;65441;44.748;37.600;2023-03-01T09:58:48;9.75;;;4.05;;
76576;SDS011;65441;44.748;37.600;2023-03-01T10:01:30;7.63;;;2.88;;
76576;SDS011;65441;44.748;37.600;2023-03-01T10:04:23;9.77;;;3.83;;
76576;SDS011;65441;44.748;37.600;2023-03-01T10:07:05;10.55;;;3.95;;
76576;SDS011;65441;44.748;37.600;2023-03-01T10:09:45;8.35;;;3.90;;
76576;SDS011;65441;44.748;37.600;2023-03-01T10:12:15;9.70;;;3.78;;
76576;SDS011;65441;44.748;37.600;2023-03-01T10:14:54;9.45;;;3.35;;
76576;SDS011;65441;44.748;37.600;2023-03-01T10:17:32;8.68;;;3.30;;
76576;SDS011;65441;44.748;37.600;2023-03-01T10:20:15;9.57;;;3.50;;
76576;SDS011;65441;44.748;37.600;2023-03-01T10:22:49;9.07;;;3.42;;
76576;SDS011;65441;44.748;37.600;2023-03-01T10:25:24;6.80;;;2.92;;
76576;SDS011;65441;44.748;37.600;2023-03-01T10:28:09;7.38;;;3.13;;
76576;SDS011;65441;44.748;37.600;2023-03-01T10:30:44;7.60;;;2.80;;
76576;SDS011;65441;44.748;37.600;2023-03-01T10:33:15;8.07;;;2.92;;
76576;SDS011;65441;44.748;37.600;2023-03-01T10:35:47;7.55;;;2.50;;
76576;SDS011;65441;44.748;37.600;2023-03-01T10:38:17;7.00;;;2.58;;
76576;SDS011;65441;44.748;37.600;2023-03-01T10:40:51;18.80;;;2.72;;
76576;SDS011;65441;44.748;37.600;2023-03-01T10:43:24;6.88;;;2.25;;
76576;SDS011;65441;44.748;37.600;2023-03-01T10:45:54;8.18;;;1.92;;
76576;SDS011;65441;44.748;37.600;2023-03-01T10:48:25;6.80;;;2.40;;
76576;SDS011;65441;44.748;37.600;2023-03-01T10:51:04;8.45;;;2.40;;
76576;SDS011;65441;44.748;37.600;2023-03-01T10:53:35;6.00;;;2.25;;
76576;SDS011;65441;44.748;37.600;2023-03-01T10:56:06;7.45;;;2.60;;
76576;SDS011;65441;44.748;37.600;2023-03-01T10:58:37;6.15;;;2.17;;
76576;SDS011;65441;44.748;37.600;2023-03-01T11:04:09;6.00;;;1.92;;
76576;SDS011;65441;44.748;37.600;2023-03-01T11:06:57;5.72;;;2.22;;
76576;SDS011;65441;44.748;37.600;2023-03-01T11:09:30;6.32;;;2.50;;
76576;SDS011;65441;44.748;37.600;2023-03-01T11:12:05;8.30;;;2.10;;
76576;SDS011;65441;44.748;37.600;2023-03-01T11:14:46;10.70;;;2.72;;
76576;SDS011;65441;44.748;37.600;2023-03-01T11:17:17;7.75;;;2.60;;
76576;SDS011;65441;44.748;37.600;2023-03-01T11:20:02;9.27;;;2.67;;
76576;SDS011;65441;44.748;37.600;2023-03-01T11:22:45;9.30;;;3.08;;
76576;SDS011;65441;44.748;37.600;2023-03-01T11:25:16;9.90;;;2.58;;
76576;SDS011;65441;44.748;37.600;2023-03-01T11:27:47;8.18;;;2.60;;
76576;SDS011;65441;44.748;37.600;2023-03-01T11:30:18;9.27;;;3.40;;
76576;SDS011;65441;44.748;37.600;2023-03-01T11:32:53;9.00;;;3.15;;
76576;SDS011;65441;44.748;37.600;2023-03-01T11:35:41;8.52;;;3.13;;
76576;SDS011;65441;44.748;37.600;2023-03-01T11:38:18;8.30;;;2.70;;
76576;SDS011;65441;44.748;37.600;2023-03-01T11:40:51;8.30;;;3.10;;
76576;SDS011;65441;44.748;37.600;2023-03-01T11:43:31;12.63;;;3.10;;
76576;SDS011;65441;44.748;37.600;2023-03-01T11:49:08;8.85;;;2.55;;
76576;SDS011;65441;44.748;37.600;2023-03-01T11:51:48;9.38;;;2.35;;
76576;SDS011;65441;44.748;37.600;2023-03-01T11:54:33;6.50;;;2.60;;
76576;SDS011;65441;44.748;37.600;2023-03-01T11:57:13;8.40;;;2.83;;
76576;SDS011;65441;44.748;37.600;2023-03-01T11:59:57;10.45;;;2.97;;
76576;SDS011;65441;44.748;37.600;2023-03-01T12:08:19;12.50;;;3.80;;
76576;SDS011;65441;44.748;37.600;2023-03-01T12:11:00;13.25;;;4.72;;
76576;SDS011;65441;44.748;37.600;2023-03-01T12:16:52;12.50;;;4.60;;
76576;SDS011;65441;44.748;37.600;2023-03-01T12:19:48;11.32;;;4.07;;
76576;SDS011;65441;44.748;37.600;2023-03-01T12:22:38;12.65;;;4.55;;
76576;SDS011;65441;44.748;37.600;2023-03-01T12:25:24;14.82;;;4.68;;
76576;SDS011;65441;44.748;37.600;2023-03-01T12:31:16;12.73;;;4.57;;
76576;SDS011;65441;44.748;37.600;2023-03-01T12:34:03;13.70;;;5.15;;
76576;SDS011;65441;44.748;37.600;2023-03-01T12:37:01;18.10;;;4.85;;
76576;SDS011;65441;44.748;37.600;2023-03-01T12:39:44;13.80;;;5.18;;
76576;SDS011;65441;44.748;37.600;2023-03-01T12:42:23;13.88;;;4.95;;
76576;SDS011;65441;44.748;37.600;2023-03-01T12:45:07;13.10;;;4.43;;
76576;SDS011;65441;44.748;37.600;2023-03-01T12:48:04;12.23;;;5.03;;
76576;SDS011;65441;44.748;37.600;2023-03-01T12:50:46;9.75;;;3.85;;
76576;SDS011;65441;44.748;37.600;2023-03-01T12:53:20;11.82;;;3.85;;
76576;SDS011;65441;44.748;37.600;2023-03-01T12:55:53;8.77;;;3.40;;
76576;SDS011;65441;44.748;37.600;2023-03-01T12:58:27;8.02;;;3.40;;
76576;SDS011;65441;44.748;37.600;2023-03-01T13:01:02;10.38;;;3.78;;
76576;SDS011;65441;44.748;37.600;2023-03-01T13:03:48;8.10;;;3.45;;
76576;SDS011;65441;44.748;37.600;2023-03-01T13:06:30;8.73;;;3.42;;
76576;SDS011;65441;44.748;37.600;2023-03-01T13:09:10;6.65;;;2.83;;
76576;SDS011;65441;44.748;37.600;2023-03-01T13:11:48;9.15;;;3.15;;
76576;SDS011;65441;44.748;37.600;2023-03-01T13:14:37;8.73;;;3.30;;
76576;SDS011;65441;44.748;37.600;2023-03-01T13:17:30;8.38;;;3.25;;
76576;SDS011;65441;44.748;37.600;2023-03-01T13:20:12;7.85;;;3.22;;
76576;SDS011;65441;44.748;37.600;2023-03-01T13:25:15;7.38;;;2.58;;
76576;SDS011;65441;44.748;37.600;2023-03-01T13:27:46;11.82;;;2.67;;
76576;SDS011;65441;44.748;37.600;2023-03-01T13:30:40;9.60;;;2.83;;
76576;SDS011;65441;44.748;37.600;2023-03-01T13:36:10;8.23;;;2.40;;
76576;SDS011;65441;44.748;37.600;2023-03-01T13:39:03;7.20;;;2.55;;
76576;SDS011;65441;44.748;37.600;2023-03-01T13:44:25;11.02;;;2.75;;
76576;SDS011;65441;44.748;37.600;2023-03-01T13:46:59;6.85;;;2.58;;
76576;SDS011;65441;44.748;37.600;2023-03-01T13:49:40;6.60;;;2.35;;
76576;SDS011;65441;44.748;37.600;2023-03-01T13:52:27;7.47;;;2.30;;
76576;SDS011;65441;44.748;37.600;2023-03-01T13:55:13;7.07;;;2.60;;
76576;SDS011;65441;44.748;37.600;2023-03-01T14:00:27;5.38;;;2.30;;
76576;SDS011;65441;44.748;37.600;2023-03-01T14:03:15;6.28;;;2.10;;
76576;SDS011;65441;44.748;37.600;2023-03-01T14:05:57;4.28;;;1.65;;
76576;SDS011;65441;44.748;37.600;2023-03-01T14:08:33;7.53;;;1.85;;
76576;SDS011;65441;44.748;37.600;2023-03-01T14:11:10;5.30;;;1.98;;
76576;SDS011;65441;44.748;37.600;2023-03-01T14:14:00;7.63;;;1.95;;
76576;SDS011;65441;44.748;37.600;2023-03-01T14:16:40;6.57;;;1.65;;
76576;SDS011;65441;44.748;37.600;2023-03-01T14:19:18;5.25;;;1.95;;
76576;SDS011;65441;44.748;37.600;2023-03-01T14:21:58;5.00;;;1.83;;
76576;SDS011;65441;44.748;37.600;2023-03-01T14:24:31;8.50;;;2.00;;
76576;SDS011;65441;44.748;37.600;2023-03-01T14:27:03;6.72;;;2.00;;
76576;SDS011;65441;44.748;37.600;2023-03-01T14:29:34;6.15;;;2.05;;
76576;SDS011;65441;44.748;37.600;2023-03-01T14:32:09;6.85;;;2.30;;
76576;SDS011;65441;44.748;37.600;2023-03-01T14:34:48;7.60;;;1.90;;
76576;SDS011;65441;44.748;37.600;2023-03-01T14:37:19;6.38;;;2.13;;
76576;SDS011;65441;44.748;37.600;2023-03-01T14:39:50;6.22;;;2.10;;
76576;SDS011;65441;44.748;37.600;2023-03-01T14:42:21;6.93;;;2.10;;
76576;SDS011;65441;44.748;37.600;2023-03-01T14:44:52;6.00;;;2.20;;
76576;SDS011;65441;44.748;37.600;2023-03-01T14:47:25;5.50;;;2.17;;
76576;SDS011;65441;44.748;37.600;2023-03-01T14:49:58;9.07;;;2.05;;
76576;SDS011;65441;44.748;37.600;2023-03-01T14:52:32;6.55;;;2.70;;
76576;SDS011;65441;44.748;37.600;2023-03-01T14:55:04;8.25;;;2.95;;
76576;SDS011;65441;44.748;37.600;2023-03-01T14:57:42;8.57;;;2.97;;
76576;SDS011;65441;44.748;37.600;2023-03-01T15:00:15;7.82;;;3.05;;
76576;SDS011;65441;44.748;37.600;2023-03-01T15:02:48;8.00;;;3.25;;
76576;SDS011;65441;44.748;37.600;2023-03-01T15:05:30;9.07;;;3.72;;
76576;SDS011;65441;44.748;37.600;2023-03-01T15:08:01;9.20;;;3.05;;
76576;SDS011;65441;44.748;37.600;2023-03-01T15:10:31;8.82;;;3.42;;
76576;SDS011;65441;44.748;37.600;2023-03-01T15:13:12;10.52;;;3.10;;
76576;SDS011;65441;44.748;37.600;2023-03-01T15:15:45;8.93;;;3.20;;
76576;SDS011;65441;44.748;37.600;2023-03-01T15:18:17;9.88;;;3.35;;
76576;SDS011;65441;44.748;37.600;2023-03-01T15:20:49;7.93;;;3.50;;
76576;SDS011;65441;44.748;37.600;2023-03-01T15:23:24;8.70;;;3.35;;
76576;SDS011;65441;44.748;37.600;2023-03-01T15:25:54;8.18;;;3.53;;
76576;SDS011;65441;44.748;37.600;2023-03-01T15:28:25;8.85;;;3.58;;
76576;SDS011;65441;44.748;37.600;2023-03-01T15:31:01;8.57;;;3.47;;
76576;SDS011;65441;44.748;37.600;2023-03-01T15:33:33;16.73;;;3.80;;
76576;SDS011;65441;44.748;37.600;2023-03-01T15:42:11;14.07;;;3.67;;
76576;SDS011;65441;44.748;37.600;2023-03-01T15:44:43;11.85;;;3.80;;
76576;SDS011;65441;44.748;37.600;2023-03-01T15:47:22;8.85;;;3.67;;
76576;SDS011;65441;44.748;37.600;2023-03-01T15:49:56;9.98;;;4.32;;
76576;SDS011;65441;44.748;37.600;2023-03-01T15:52:29;10.63;;;4.38;;